createdAt,value
2022-10-11T00:01:43.898Z,2.90
2022-10-11T00:04:10.481Z,3.03
2022-10-11T00:06:43.243Z,3.00
2022-10-11T00:09:14.743Z,3.00
2022-10-11T00:11:41.205Z,2.93
2022-10-11T00:14:08.193Z,3.00
2022-10-11T00:16:34.972Z,2.90
2022-10-11T00:19:01.488Z,3.47
2022-10-11T00:21:28.126Z,2.70
2022-10-11T00:23:54.681Z,3.10
2022-10-11T00:26:21.264Z,3.00
2022-10-11T00:28:47.979Z,2.87
2022-10-11T00:31:18.585Z,3.13
2022-10-11T00:33:45.490Z,3.23
2022-10-11T00:36:14.768Z,3.13
2022-10-11T00:38:41.484Z,3.17
2022-10-11T00:41:07.973Z,2.90
2022-10-11T00:43:34.665Z,3.10
2022-10-11T00:46:18.393Z,3.40
2022-10-11T00:48:48.719Z,2.90
2022-10-11T00:51:23.425Z,2.50
2022-10-11T00:53:51.017Z,3.03
2022-10-11T00:56:22.418Z,2.57
2022-10-11T00:58:48.927Z,3.00
2022-10-11T01:01:15.572Z,2.70
2022-10-11T01:03:42.254Z,3.03
2022-10-11T01:06:10.216Z,3.00
2022-10-11T01:08:37.300Z,3.00
2022-10-11T01:11:03.830Z,2.73
2022-10-11T01:13:36.696Z,2.97
2022-10-11T01:16:12.573Z,2.70
2022-10-11T01:19:01.546Z,2.83
2022-10-11T01:21:31.028Z,2.90
2022-10-11T01:24:08.518Z,3.70
2022-10-11T01:26:53.353Z,3.00
2022-10-11T01:29:38.266Z,3.13
2022-10-11T01:32:15.430Z,2.80
2022-10-11T01:34:51.413Z,2.83
2022-10-11T01:37:24.240Z,3.10
2022-10-11T01:40:15.984Z,3.13
2022-10-11T01:42:43.469Z,3.10
2022-10-11T01:45:14.231Z,2.93
2022-10-11T01:47:42.657Z,3.00
2022-10-11T01:50:40.217Z,2.87
2022-10-11T01:53:37.259Z,3.47
2022-10-11T01:56:14.184Z,3.33
2022-10-11T01:58:55.253Z,2.90
2022-10-11T02:02:00.230Z,3.43
2022-10-11T02:04:48.272Z,3.50
2022-10-11T02:07:43.087Z,3.30
2022-10-11T02:10:17.400Z,3.33
2022-10-11T02:12:48.727Z,3.13
2022-10-11T02:15:16.861Z,2.87
2022-10-11T02:17:52.824Z,3.13
2022-10-11T02:20:22.084Z,3.27
2022-10-11T02:22:50.541Z,2.60
2022-10-11T02:25:23.380Z,3.10
2022-10-11T02:27:52.226Z,3.27
2022-10-11T02:30:18.841Z,3.33
2022-10-11T02:32:46.738Z,3.20
2022-10-11T02:35:13.706Z,2.80
2022-10-11T02:37:49.552Z,2.93
2022-10-11T02:40:21.573Z,3.10
2022-10-11T02:42:59.584Z,3.00
2022-10-11T02:45:30.682Z,3.30
2022-10-11T02:47:57.834Z,2.93
2022-10-11T02:50:24.519Z,2.90
2022-10-11T02:52:51.138Z,3.10
2022-10-11T02:55:17.821Z,3.03
2022-10-11T02:57:44.538Z,2.97
2022-10-11T03:00:11.754Z,3.33
2022-10-11T03:02:38.300Z,3.27
2022-10-11T03:05:05.232Z,3.20
2022-10-11T03:07:31.706Z,2.90
2022-10-11T03:09:58.198Z,3.73
2022-10-11T03:12:24.706Z,3.43
2022-10-11T03:14:53.124Z,3.07
2022-10-11T03:17:35.699Z,2.70
2022-10-11T03:20:04.730Z,3.07
2022-10-11T03:22:31.234Z,2.70
2022-10-11T03:25:02.710Z,3.47
2022-10-11T03:27:31.018Z,3.37
2022-10-11T03:29:57.974Z,3.30
2022-10-11T03:32:24.819Z,3.20
2022-10-11T03:34:51.309Z,3.33
2022-10-11T03:37:18.387Z,3.47
2022-10-11T03:39:45.824Z,3.57
2022-10-11T03:42:13.445Z,3.57
2022-10-11T03:44:41.592Z,4.47
2022-10-11T03:47:08.505Z,4.90
2022-10-11T03:49:37.722Z,4.20
2022-10-11T03:52:07.910Z,4.00
2022-10-11T03:54:34.380Z,4.10
2022-10-11T03:57:00.930Z,3.60
2022-10-11T03:59:27.499Z,3.30
2022-10-11T04:01:54.241Z,3.83
2022-10-11T04:04:20.882Z,4.17
2022-10-11T04:06:47.511Z,3.53
2022-10-11T04:09:13.998Z,3.80
2022-10-11T04:11:40.624Z,4.60
2022-10-11T04:14:07.266Z,4.60
2022-10-11T04:16:35.393Z,4.57
2022-10-11T04:19:01.880Z,3.90
2022-10-11T04:21:28.401Z,3.73
2022-10-11T04:23:54.818Z,4.03
2022-10-11T04:26:21.446Z,4.90
2022-10-11T04:28:48.136Z,4.20
2022-10-11T04:31:14.797Z,4.03
2022-10-11T04:33:41.373Z,3.23
2022-10-11T04:36:08.785Z,3.77
2022-10-11T04:38:35.579Z,4.50
2022-10-11T04:41:13.406Z,3.67
2022-10-11T04:43:40.201Z,3.57
2022-10-11T04:46:07.362Z,3.87
2022-10-11T04:48:34.075Z,3.90
2022-10-11T04:51:03.875Z,3.40
2022-10-11T04:53:30.582Z,4.27
2022-10-11T04:56:05.411Z,4.53
2022-10-11T04:58:33.678Z,4.13
2022-10-11T05:01:00.548Z,3.63
2022-10-11T05:03:27.675Z,4.13
2022-10-11T05:05:54.294Z,4.03
2022-10-11T05:08:23.291Z,5.07
2022-10-11T05:11:04.099Z,4.50
2022-10-11T05:13:31.855Z,4.33
2022-10-11T05:15:58.475Z,4.17
2022-10-11T05:18:25.350Z,4.60
2022-10-11T05:21:05.693Z,4.43
2022-10-11T05:23:34.183Z,5.00
2022-10-11T05:26:00.814Z,4.93
2022-10-11T05:28:27.973Z,4.20
2022-10-11T05:30:54.959Z,4.73
2022-10-11T05:33:22.021Z,4.83
2022-10-11T05:35:48.584Z,4.70
2022-10-11T05:38:15.538Z,4.70
2022-10-11T05:40:42.081Z,5.10
2022-10-11T05:43:08.823Z,4.10
2022-10-11T05:45:37.271Z,4.43
2022-10-11T05:48:04.233Z,4.33
2022-10-11T05:50:30.954Z,3.80
2022-10-11T05:52:57.515Z,4.57
2022-10-11T05:55:24.120Z,4.60
2022-10-11T05:57:54.912Z,4.07
2022-10-11T06:00:22.276Z,4.37
2022-10-11T06:02:49.080Z,4.50
2022-10-11T06:05:16.234Z,5.73
2022-10-11T06:07:42.710Z,4.60
2022-10-11T06:10:09.739Z,4.70
2022-10-11T06:12:36.449Z,4.47
2022-10-11T06:15:04.491Z,5.20
2022-10-11T06:17:31.221Z,4.37
2022-10-11T06:19:57.679Z,5.27
2022-10-11T06:22:24.227Z,4.67
2022-10-11T06:24:50.881Z,5.53
2022-10-11T06:27:17.394Z,5.47
2022-10-11T06:29:43.974Z,5.33
2022-10-11T06:32:10.564Z,6.07
2022-10-11T06:34:37.001Z,5.67
2022-10-11T06:37:03.601Z,5.30
2022-10-11T06:39:30.134Z,4.83
2022-10-11T06:41:59.257Z,6.07
2022-10-11T06:44:26.409Z,5.87
2022-10-11T06:46:52.950Z,5.80
2022-10-11T06:49:23.247Z,6.03
2022-10-11T06:51:50.626Z,6.80
2022-10-11T06:54:20.258Z,7.40
2022-10-11T06:56:46.901Z,6.90
2022-10-11T06:59:15.142Z,7.00
2022-10-11T07:01:42.664Z,7.03
2022-10-11T07:04:09.476Z,6.63
2022-10-11T07:06:38.613Z,7.13
2022-10-11T07:09:05.407Z,6.63
2022-10-11T07:11:31.921Z,7.40
2022-10-11T07:14:07.985Z,7.30
2022-10-11T07:16:39.312Z,7.17
2022-10-11T07:19:07.599Z,6.73
2022-10-11T07:21:34.845Z,6.83
2022-10-11T07:24:01.942Z,12.83
2022-10-11T07:26:32.461Z,8.60
2022-10-11T07:29:04.252Z,8.50
2022-10-11T07:31:30.923Z,9.30
2022-10-11T07:33:57.611Z,8.33
2022-10-11T07:36:24.263Z,9.07
2022-10-11T07:38:51.003Z,9.83
2022-10-11T07:41:17.602Z,9.43
2022-10-11T07:43:44.257Z,8.67
2022-10-11T07:46:11.530Z,9.47
2022-10-11T07:48:38.792Z,8.43
2022-10-11T07:51:14.441Z,8.80
2022-10-11T07:53:43.111Z,8.03
2022-10-11T07:56:12.525Z,16.77
2022-10-11T07:58:39.999Z,12.40
2022-10-11T08:01:07.433Z,8.63
2022-10-11T08:03:34.347Z,9.50
2022-10-11T08:06:12.148Z,8.30
2022-10-11T08:08:38.605Z,9.10
2022-10-11T08:11:05.913Z,8.67
2022-10-11T08:13:32.742Z,7.67
2022-10-11T08:15:59.663Z,8.63
2022-10-11T08:18:26.216Z,9.33
2022-10-11T08:20:52.788Z,9.47
2022-10-11T08:23:19.780Z,8.57
2022-10-11T08:25:47.414Z,8.63
2022-10-11T08:28:17.418Z,9.13
2022-10-11T08:30:51.868Z,8.93
2022-10-11T08:33:19.664Z,8.80
2022-10-11T08:35:46.363Z,7.73
2022-10-11T08:38:13.099Z,5.87
2022-10-11T08:40:47.126Z,6.77
2022-10-11T08:43:48.279Z,6.50
2022-10-11T08:46:15.800Z,7.33
2022-10-11T08:48:45.689Z,8.17
2022-10-11T08:51:31.409Z,6.50
2022-10-11T08:54:12.260Z,7.03
2022-10-11T08:56:40.099Z,7.27
2022-10-11T08:59:15.769Z,6.70
2022-10-11T09:01:59.457Z,6.83
2022-10-11T09:04:26.182Z,6.63
2022-10-11T09:07:03.848Z,7.10
2022-10-11T09:09:45.703Z,9.87
2022-10-11T09:12:12.322Z,6.90
2022-10-11T09:15:04.055Z,5.60
2022-10-11T09:17:45.593Z,6.17
2022-10-11T09:20:21.147Z,6.47
2022-10-11T09:23:00.052Z,6.13
2022-10-11T09:25:44.373Z,5.37
2022-10-11T09:28:36.611Z,5.83
2022-10-11T09:31:03.268Z,6.07
2022-10-11T09:33:44.280Z,6.70
2022-10-11T09:36:17.411Z,6.30
2022-10-11T09:38:51.307Z,6.30
2022-10-11T09:41:48.559Z,6.00
2022-10-11T09:44:46.813Z,5.50
2022-10-11T09:47:25.153Z,5.87
2022-10-11T09:49:58.426Z,6.57
2022-10-11T09:52:25.411Z,5.77
2022-10-11T09:54:55.032Z,4.77
2022-10-11T09:57:27.502Z,4.97
2022-10-11T10:00:12.213Z,4.70
2022-10-11T10:02:55.471Z,4.50
2022-10-11T10:05:40.150Z,4.80
2022-10-11T10:08:09.681Z,4.03
2022-10-11T10:10:44.541Z,4.33
2022-10-11T10:13:29.918Z,3.83
2022-10-11T10:15:59.118Z,3.83
2022-10-11T10:18:37.643Z,2.83
2022-10-11T10:21:09.791Z,3.27
2022-10-11T10:23:37.584Z,2.80
2022-10-11T10:26:13.464Z,2.90
2022-10-11T10:28:40.470Z,2.90
2022-10-11T10:31:22.128Z,2.90
2022-10-11T10:33:51.044Z,2.80
2022-10-11T10:36:27.992Z,3.03
2022-10-11T10:39:00.360Z,3.07
2022-10-11T10:41:27.003Z,3.13
2022-10-11T10:43:57.265Z,3.77
2022-10-11T10:46:41.595Z,2.90
2022-10-11T10:52:19.719Z,2.53
2022-10-11T10:54:55.666Z,3.07
2022-10-11T10:57:26.372Z,2.70
2022-10-11T11:00:19.689Z,3.00
2022-10-11T11:03:27.963Z,3.23
2022-10-11T11:06:01.895Z,3.13
2022-10-11T11:08:31.629Z,2.90
2022-10-11T11:11:02.230Z,2.60
2022-10-11T11:13:31.835Z,2.07
2022-10-11T11:16:20.392Z,2.53
2022-10-11T11:19:24.328Z,3.53
2022-10-11T11:22:00.643Z,3.83
2022-10-11T11:24:47.229Z,3.00
2022-10-11T11:27:19.725Z,2.67
2022-10-11T11:30:06.421Z,2.40
2022-10-11T11:33:06.916Z,3.00
2022-10-11T11:35:45.247Z,2.73
2022-10-11T11:38:18.583Z,3.07
2022-10-11T11:40:49.895Z,3.03
2022-10-11T11:43:32.769Z,2.20
2022-10-11T11:46:04.629Z,3.30
2022-10-11T11:48:31.190Z,2.87
2022-10-11T11:51:05.647Z,2.73
2022-10-11T11:53:50.829Z,2.20
2022-10-11T11:56:23.489Z,2.53
2022-10-11T11:58:55.733Z,3.03
2022-10-11T12:01:35.982Z,2.10
2022-10-11T12:04:05.634Z,3.00
2022-10-11T12:06:35.926Z,2.67
2022-10-11T12:09:16.641Z,2.33
2022-10-11T12:11:50.297Z,2.47
2022-10-11T12:14:34.626Z,2.60
2022-10-11T12:17:12.301Z,2.93
2022-10-11T12:19:41.511Z,2.90
2022-10-11T12:22:20.233Z,2.50
2022-10-11T12:25:01.050Z,2.67
2022-10-11T12:27:38.560Z,2.30
2022-10-11T12:30:43.614Z,2.50
2022-10-11T12:33:13.402Z,2.23
2022-10-11T12:35:50.328Z,2.90
2022-10-11T12:38:16.992Z,2.60
2022-10-11T12:40:47.033Z,2.53
2022-10-11T12:43:17.457Z,2.43
2022-10-11T12:45:47.941Z,2.90
2022-10-11T12:48:41.128Z,2.93
2022-10-11T12:51:23.076Z,2.47
2022-10-11T12:54:25.344Z,2.30
2022-10-11T12:57:12.014Z,2.83
2022-10-11T12:59:43.497Z,2.60
2022-10-11T13:02:42.667Z,2.70
2022-10-11T13:05:22.245Z,2.40
2022-10-11T13:07:48.980Z,2.03
2022-10-11T13:10:17.065Z,2.63
2022-10-11T13:12:46.539Z,3.17
2022-10-11T13:15:16.048Z,2.43
2022-10-11T13:17:43.010Z,2.47
2022-10-11T13:20:22.011Z,3.00
2022-10-11T13:22:51.033Z,2.63
2022-10-11T13:25:20.843Z,2.73
2022-10-11T13:27:48.421Z,2.67
2022-10-11T13:30:25.548Z,2.67
2022-10-11T13:32:52.785Z,2.60
2022-10-11T13:35:38.523Z,2.77
2022-10-11T13:38:08.853Z,2.07
2022-10-11T13:40:35.649Z,1.93
2022-10-11T13:43:02.469Z,2.37
2022-10-11T13:45:31.938Z,2.60
2022-10-11T13:47:58.638Z,2.20
2022-10-11T13:50:32.026Z,2.13
2022-10-11T13:53:09.461Z,3.30
2022-10-11T13:55:41.950Z,3.30
2022-10-11T13:58:36.241Z,3.00
2022-10-11T14:01:06.119Z,2.47
2022-10-11T14:03:39.576Z,2.20
2022-10-11T14:06:06.798Z,2.63
2022-10-11T14:08:45.173Z,2.80
2022-10-11T14:11:13.272Z,4.87
2022-10-11T14:13:47.034Z,2.87
2022-10-11T14:16:29.355Z,3.33
2022-10-11T14:18:58.987Z,2.73
2022-10-11T14:21:30.662Z,4.17
2022-10-11T14:24:00.249Z,4.30
2022-10-11T14:26:27.912Z,2.90
2022-10-11T14:28:59.056Z,2.90
2022-10-11T14:31:26.320Z,3.60
2022-10-11T14:33:53.855Z,2.70
2022-10-11T14:36:22.768Z,3.20
2022-10-11T14:38:50.607Z,2.33
2022-10-11T14:41:17.299Z,2.70
2022-10-11T14:43:43.832Z,2.67
2022-10-11T14:46:21.070Z,2.77
2022-10-11T14:48:55.588Z,2.70
2022-10-11T14:51:26.487Z,2.87
2022-10-11T14:53:53.227Z,2.50
2022-10-11T14:56:21.678Z,2.53
2022-10-11T14:58:48.725Z,2.70
2022-10-11T15:01:16.771Z,3.23
2022-10-11T15:03:43.409Z,3.10
2022-10-11T15:06:17.755Z,3.23
2022-10-11T15:08:44.342Z,2.67
2022-10-11T15:11:12.411Z,3.13
2022-10-11T15:13:38.945Z,3.37
2022-10-11T15:16:06.031Z,2.47
2022-10-11T15:18:32.851Z,2.70
2022-10-11T15:21:00.540Z,3.50
2022-10-11T15:23:27.133Z,3.07
2022-10-11T15:25:53.630Z,3.77
2022-10-11T15:28:28.589Z,3.97
2022-10-11T15:30:55.999Z,3.57
2022-10-11T15:33:23.349Z,4.67
2022-10-11T15:35:50.509Z,4.27
2022-10-11T15:38:22.150Z,4.80
2022-10-11T15:40:49.928Z,4.27
2022-10-11T15:43:20.768Z,4.07
2022-10-11T15:45:50.458Z,3.87
2022-10-11T15:48:22.109Z,3.70
2022-10-11T15:50:49.884Z,3.47
2022-10-11T15:53:17.850Z,3.30
2022-10-11T15:55:47.282Z,3.10
2022-10-11T15:58:24.756Z,3.47
2022-10-11T16:00:56.305Z,3.03
2022-10-11T16:03:25.503Z,2.90
2022-10-11T16:05:52.977Z,2.80
2022-10-11T16:08:19.631Z,2.80
2022-10-11T16:10:46.229Z,3.03
2022-10-11T16:13:12.999Z,3.07
2022-10-11T16:15:41.161Z,3.30
2022-10-11T16:18:10.651Z,3.40
2022-10-11T16:20:38.849Z,2.83
2022-10-11T16:23:05.680Z,2.43
2022-10-11T16:25:32.338Z,2.87
2022-10-11T16:27:59.265Z,3.03
2022-10-11T16:30:26.317Z,2.70
2022-10-11T16:32:52.993Z,2.70
2022-10-11T16:35:19.854Z,3.20
2022-10-11T16:37:46.705Z,2.83
2022-10-11T16:40:19.814Z,2.60
2022-10-11T16:42:47.467Z,3.23
2022-10-11T16:45:15.350Z,2.60
2022-10-11T16:47:43.173Z,2.50
2022-10-11T16:50:10.791Z,2.83
2022-10-11T16:52:37.419Z,3.30
2022-10-11T16:55:04.383Z,3.30
2022-10-11T16:57:31.105Z,2.80
2022-10-11T16:59:57.764Z,3.37
2022-10-11T17:02:31.317Z,3.40
2022-10-11T17:04:59.008Z,4.77
2022-10-11T17:07:25.820Z,8.33
2022-10-11T17:09:52.417Z,7.87
2022-10-11T17:12:22.609Z,5.37
2022-10-11T17:14:50.253Z,6.33
2022-10-11T17:17:18.355Z,7.67
2022-10-11T17:19:45.702Z,7.77
2022-10-11T17:22:14.191Z,6.83
2022-10-11T17:24:40.866Z,6.67
2022-10-11T17:27:08.022Z,7.63
2022-10-11T17:29:34.899Z,7.63
2022-10-11T17:32:01.775Z,7.87
2022-10-11T17:34:28.335Z,6.73
2022-10-11T17:36:55.013Z,5.90
2022-10-11T17:39:22.587Z,6.17
2022-10-11T17:41:49.732Z,5.77
2022-10-11T17:44:19.223Z,5.30
2022-10-11T17:46:46.522Z,5.70
2022-10-11T17:49:24.280Z,5.40
2022-10-11T17:51:50.760Z,5.70
2022-10-11T17:54:17.638Z,4.47
2022-10-11T17:56:44.116Z,5.00
2022-10-11T17:59:15.899Z,5.03
2022-10-11T18:01:42.790Z,5.40
2022-10-11T18:04:16.489Z,5.70
2022-10-11T18:06:45.285Z,5.40
2022-10-11T18:09:13.504Z,5.43
2022-10-11T18:11:40.311Z,4.80
2022-10-11T18:14:07.120Z,5.47
2022-10-11T18:16:34.864Z,5.80
2022-10-11T18:19:03.371Z,5.13
2022-10-11T18:21:34.340Z,5.27
2022-10-11T18:24:03.600Z,5.00
2022-10-11T18:26:30.872Z,4.93
2022-10-11T18:28:58.499Z,4.93
2022-10-11T18:31:28.001Z,4.83
2022-10-11T18:33:54.627Z,4.77
2022-10-11T18:36:27.207Z,4.40
2022-10-11T18:38:56.217Z,4.77
2022-10-11T18:41:24.268Z,4.97
2022-10-11T18:43:51.588Z,4.90
2022-10-11T18:46:19.596Z,4.67
2022-10-11T18:48:47.818Z,5.00
2022-10-11T18:51:20.462Z,4.83
2022-10-11T18:53:47.933Z,4.50
2022-10-11T18:56:16.041Z,5.17
2022-10-11T18:58:44.235Z,5.63
2022-10-11T19:01:12.667Z,5.37
2022-10-11T19:03:39.389Z,5.60
2022-10-11T19:06:09.276Z,5.10
2022-10-11T19:08:35.930Z,5.03
2022-10-11T19:11:09.189Z,5.10
2022-10-11T19:13:36.305Z,5.40
2022-10-11T19:16:08.513Z,4.57
2022-10-11T19:18:38.290Z,5.20
2022-10-11T19:21:11.691Z,6.10
2022-10-11T19:23:40.652Z,5.43
2022-10-11T19:26:20.928Z,5.53
2022-10-11T19:28:48.516Z,5.60
2022-10-11T19:31:21.023Z,4.53
2022-10-11T19:33:49.770Z,5.40
2022-10-11T19:36:17.243Z,5.67
2022-10-11T19:38:46.854Z,5.60
2022-10-11T19:41:14.810Z,5.43
2022-10-11T19:43:41.827Z,5.50
2022-10-11T19:46:10.503Z,5.63
2022-10-11T19:48:38.289Z,5.60
2022-10-11T19:51:07.108Z,6.03
2022-10-11T19:53:34.020Z,5.27
2022-10-11T19:56:02.315Z,5.73
2022-10-11T19:58:29.317Z,6.00
2022-10-11T20:01:12.190Z,6.43
2022-10-11T20:03:39.353Z,6.87
2022-10-11T20:06:07.897Z,5.97
2022-10-11T20:08:36.038Z,6.87
2022-10-11T20:11:06.180Z,6.20
2022-10-11T20:13:35.080Z,6.03
2022-10-11T20:16:09.144Z,6.77
2022-10-11T20:18:37.674Z,7.03
2022-10-11T20:21:12.010Z,6.70
2022-10-11T20:23:39.828Z,6.77
2022-10-11T20:26:11.212Z,7.00
2022-10-11T20:28:38.277Z,7.03
2022-10-11T20:31:11.728Z,7.27
2022-10-11T20:33:38.311Z,7.30
2022-10-11T20:36:06.872Z,7.13
2022-10-11T20:38:34.976Z,7.70
2022-10-11T20:41:09.563Z,7.23
2022-10-11T20:43:36.514Z,6.57
2022-10-11T20:46:08.531Z,6.40
2022-10-11T20:48:35.923Z,5.87
2022-10-11T20:51:03.471Z,6.60
2022-10-11T20:53:30.125Z,6.37
2022-10-11T20:55:56.874Z,6.70
2022-10-11T20:58:23.705Z,5.80
2022-10-11T21:00:50.433Z,6.07
2022-10-11T21:03:17.673Z,6.37
2022-10-11T21:05:44.649Z,6.00
2022-10-11T21:08:11.284Z,6.60
2022-10-11T21:10:38.266Z,6.00
2022-10-11T21:13:05.101Z,6.27
2022-10-11T21:15:32.354Z,6.60
2022-10-11T21:17:58.951Z,5.47
2022-10-11T21:20:25.585Z,6.97
2022-10-11T21:22:52.093Z,6.73
2022-10-11T21:25:18.707Z,6.43
2022-10-11T21:27:45.299Z,5.77
2022-10-11T21:30:11.833Z,6.40
2022-10-11T21:32:38.371Z,5.80
2022-10-11T21:35:04.924Z,6.40
2022-10-11T21:37:31.597Z,5.73
2022-10-11T21:39:58.298Z,6.27
2022-10-11T21:42:29.276Z,6.60
2022-10-11T21:44:56.142Z,6.40
2022-10-11T21:47:22.709Z,5.87
2022-10-11T21:49:49.235Z,6.60
2022-10-11T21:52:15.884Z,6.23
2022-10-11T21:54:42.342Z,6.70
2022-10-11T21:57:08.967Z,6.13
2022-10-11T21:59:35.484Z,5.63
2022-10-11T22:02:02.394Z,6.47
2022-10-11T22:04:29.070Z,6.33
2022-10-11T22:06:55.613Z,6.73
2022-10-11T22:09:22.132Z,7.23
2022-10-11T22:11:48.654Z,7.73
2022-10-11T22:14:15.330Z,7.27
2022-10-11T22:16:41.895Z,7.37
2022-10-11T22:19:08.428Z,7.67
2022-10-11T22:21:35.361Z,7.63
2022-10-11T22:24:02.003Z,6.83
2022-10-11T22:26:30.609Z,6.83
2022-10-11T22:28:58.617Z,7.30
2022-10-11T22:31:25.165Z,6.70
2022-10-11T22:33:55.534Z,7.07
2022-10-11T22:36:24.223Z,6.60
2022-10-11T22:38:51.524Z,6.47
2022-10-11T22:41:18.093Z,6.33
2022-10-11T22:43:44.538Z,7.23
2022-10-11T22:46:11.419Z,6.83
2022-10-11T22:48:38.206Z,6.67
2022-10-11T22:51:04.741Z,6.53
2022-10-11T22:53:31.427Z,6.83
2022-10-11T22:55:58.031Z,6.17
2022-10-11T22:58:24.569Z,6.07
2022-10-11T23:00:51.066Z,6.33
2022-10-11T23:03:18.310Z,5.20
2022-10-11T23:05:54.161Z,6.20
2022-10-11T23:08:20.633Z,5.80
2022-10-11T23:10:47.161Z,6.20
2022-10-11T23:13:13.594Z,5.60
2022-10-11T23:15:41.013Z,6.23
2022-10-11T23:18:07.627Z,6.40
2022-10-11T23:20:34.099Z,5.80
2022-10-11T23:23:00.599Z,5.70
2022-10-11T23:25:27.175Z,6.23
2022-10-11T23:27:53.804Z,5.50
2022-10-11T23:30:20.261Z,6.00
2022-10-11T23:32:47.189Z,5.97
2022-10-11T23:35:13.775Z,6.13
2022-10-11T23:37:40.412Z,5.17
2022-10-11T23:40:10.359Z,5.33
2022-10-11T23:42:36.854Z,5.70
2022-10-11T23:45:03.904Z,5.60
2022-10-11T23:47:30.474Z,5.40
2022-10-11T23:49:57.252Z,5.60
2022-10-11T23:52:23.759Z,5.43
2022-10-11T23:54:50.373Z,5.60
2022-10-11T23:57:16.998Z,6.00
2022-10-11T23:59:43.457Z,5.60
